Time;durP1;ratioP1;P1;durP2;ratioP2;P2;SDS_P1;SDS_P2;PMS_P1;PMS_P2;Temp;Humidity;BMP_temperature;BMP_pressure;BME280_temperature;BME280_humidity;BME280_pressure;Samples;Min_cycle;Max_cycle;Signal;HPM_P1;HPM_P2
2023/01/07 00:00:46;;;;;;;5.85;4.05;;;;;;;9.76;100.00;101623.28;5093667;28;20055;-38
2023/01/07 00:03:11;;;;;;;7.93;4.70;;;;;;;9.70;100.00;101609.75;5094910;28;20098;-38
2023/01/07 00:05:37;;;;;;;7.17;4.90;;;;;;;9.72;100.00;101613.09;5093694;28;20020;-38
2023/01/07 00:08:02;;;;;;;4.50;4.07;;;;;;;9.73;100.00;101612.06;5094089;28;20055;-38
2023/01/07 00:10:27;;;;;;;14.02;5.28;;;;;;;9.71;100.00;101616.81;5094582;28;20052;-38
2023/01/07 00:12:53;;;;;;;6.13;4.50;;;;;;;9.73;100.00;101612.06;5093916;28;20054;-38
2023/01/07 00:15:18;;;;;;;6.00;4.93;;;;;;;9.74;100.00;101613.72;5093906;28;20023;-38
2023/01/07 00:17:43;;;;;;;5.13;4.47;;;;;;;9.74;100.00;101611.00;5093898;28;20028;-38
2023/01/07 00:20:09;;;;;;;5.87;4.33;;;;;;;9.72;100.00;101599.59;5094412;28;20062;-38
2023/01/07 00:22:34;;;;;;;5.25;4.32;;;;;;;9.69;100.00;101606.22;5093751;28;20036;-38
2023/01/07 00:25:00;;;;;;;6.50;4.20;;;;;;;9.65;100.00;101596.03;5094620;28;20043;-38
2023/01/07 00:27:25;;;;;;;7.27;4.83;;;;;;;9.70;100.00;101602.47;5093489;28;20039;-38
2023/01/07 00:29:50;;;;;;;5.20;4.30;;;;;;;9.63;100.00;101588.16;5093489;28;20035;-38
2023/01/07 00:32:15;;;;;;;6.60;4.63;;;;;;;9.67;100.00;101594.81;5093582;28;20031;-38
2023/01/07 00:34:41;;;;;;;5.90;4.60;;;;;;;9.68;100.00;101592.94;5094242;28;20028;-38
2023/01/07 00:39:50;;;;;;;6.88;4.90;;;;;;;9.68;100.00;101588.38;5094184;28;20051;-38
2023/01/07 00:44:59;;;;;;;6.47;5.13;;;;;;;9.66;100.00;101585.06;5093372;28;20043;-38
2023/01/07 00:47:26;;;;;;;5.50;4.67;;;;;;;9.54;100.00;101563.22;5093250;28;20028;-38
2023/01/07 00:49:51;;;;;;;5.65;4.88;;;;;;;9.67;100.00;101580.47;5093554;28;20036;-38
2023/01/07 00:52:16;;;;;;;7.83;5.57;;;;;;;9.66;100.00;101576.09;5093982;28;20031;-38
2023/01/07 00:54:42;;;;;;;11.50;5.67;;;;;;;9.58;100.00;101562.81;5093278;28;20043;-38
2023/01/07 00:57:10;;;;;;;6.50;5.77;;;;;;;9.60;100.00;101564.25;5093227;28;20028;-38
2023/01/07 00:59:36;;;;;;;8.65;5.75;;;;;;;9.58;100.00;101568.22;5094395;28;20117;-38
2023/01/07 01:02:01;;;;;;;7.37;5.87;;;;;;;9.57;100.00;101558.47;5093126;28;20060;-38
2023/01/07 01:04:26;;;;;;;6.77;5.40;;;;;;;9.52;100.00;101549.09;5093457;28;20026;-38
2023/01/07 01:06:52;;;;;;;9.87;6.17;;;;;;;9.53;100.00;101555.34;5093718;28;20111;-38
2023/01/07 01:09:19;;;;;;;8.17;6.00;;;;;;;9.49;100.00;101551.38;5093183;28;20020;-38
2023/01/07 01:11:44;;;;;;;7.82;6.38;;;;;;;9.49;100.00;101546.81;5094501;28;20115;-38
2023/01/07 01:14:10;;;;;;;8.93;6.13;;;;;;;9.48;100.00;101542.44;5097622;28;20107;-38
2023/01/07 01:16:36;;;;;;;9.18;6.38;;;;;;;9.45;100.00;101533.94;5097056;28;20090;-38
2023/01/07 01:19:01;;;;;;;9.27;6.63;;;;;;;9.41;100.00;101535.38;5097285;28;20036;-38
2023/01/07 01:21:26;;;;;;;7.90;6.13;;;;;;;9.44;100.00;101541.19;5096933;28;20085;-38
2023/01/07 01:23:52;;;;;;;11.43;6.53;;;;;;;9.33;100.00;101514.81;5096994;28;20761;-38
2023/01/07 01:26:17;;;;;;;6.93;5.82;;;;;;;9.42;100.00;101534.31;5096780;28;20141;-38
2023/01/07 01:28:43;;;;;;;7.13;5.60;;;;;;;9.41;100.00;101538.91;5096817;28;20036;-38
2023/01/07 01:31:09;;;;;;;9.00;4.95;;;;;;;9.39;100.00;101526.66;5097152;28;20384;-38
2023/01/07 01:33:35;;;;;;;6.57;5.25;;;;;;;9.39;100.00;101526.66;5097249;28;20032;-38
2023/01/07 01:36:09;;;;;;;7.45;5.55;;;;;;;9.37;100.00;101524.19;5096750;28;20472;-38
2023/01/07 01:38:34;;;;;;;6.22;5.47;;;;;;;9.36;100.00;101525.19;5097737;28;20376;-38
2023/01/07 01:41:00;;;;;;;6.45;4.90;;;;;;;9.35;100.00;101531.63;5095691;28;20036;-38
2023/01/07 01:43:30;;;;;;;5.72;4.85;;;;;;;9.36;100.00;101527.88;5096538;28;20062;-38
2023/01/07 01:45:59;;;;;;;9.48;5.00;;;;;;;9.35;100.00;101536.22;5096783;28;20032;-38
2023/01/07 01:48:24;;;;;;;7.88;5.30;;;;;;;9.36;100.00;101527.06;5096454;28;20111;-38
2023/01/07 01:50:51;;;;;;;5.85;4.57;;;;;;;9.37;100.00;101532.28;5096514;28;20491;-38
2023/01/07 01:53:24;;;;;;;6.45;5.10;;;;;;;9.36;100.00;101533.28;5097421;28;20032;-38
2023/01/07 01:55:55;;;;;;;8.88;4.57;;;;;;;9.19;100.00;101505.06;5096627;28;20028;-38
2023/01/07 01:58:36;;;;;;;6.05;4.53;;;;;;;9.36;100.00;101536.00;5096834;28;20020;-38
2023/01/07 02:01:01;;;;;;;6.90;4.75;;;;;;;9.32;100.00;101540.16;5096767;28;20418;-38
2023/01/07 02:03:29;;;;;;;7.20;4.67;;;;;;;9.30;100.00;101528.72;5096771;28;20089;-38
2023/01/07 02:05:55;;;;;;;7.35;5.07;;;;;;;9.23;100.00;101517.09;5097135;28;20030;-38
2023/01/07 02:08:23;;;;;;;6.38;4.53;;;;;;;9.29;100.00;101527.91;5096948;28;20119;-38
2023/01/07 02:10:59;;;;;;;5.28;4.53;;;;;;;9.29;100.00;101532.47;5096108;28;20024;-38
2023/01/07 02:13:40;;;;;;;6.88;4.85;;;;;;;9.20;100.00;101515.63;5096546;28;20028;-38
2023/01/07 02:16:21;;;;;;;7.20;4.75;;;;;;;9.24;100.00;101527.69;5096473;28;20030;-38
2023/01/07 02:19:22;;;;;;;6.82;4.82;;;;;;;9.22;100.00;101526.22;5095858;28;20039;-38
2023/01/07 02:22:00;;;;;;;8.38;4.60;;;;;;;9.22;100.00;101523.50;5033549;28;20228;-38
2023/01/07 02:24:47;;;;;;;6.13;4.60;;;;;;;9.22;100.00;101518.13;5033619;28;20092;-38
2023/01/07 02:27:30;;;;;;;5.65;4.45;;;;;;;9.21;100.00;101521.84;5033962;28;20108;-38
2023/01/07 02:30:23;;;;;;;5.20;4.20;;;;;;;9.17;100.00;101515.19;5033992;28;20037;-38
2023/01/07 02:33:15;;;;;;;8.90;4.70;;;;;;;9.17;100.00;101523.28;5033672;28;20103;-38
2023/01/07 02:35:46;;;;;;;6.22;4.93;;;;;;;9.15;100.00;101514.59;5033866;28;20493;-38
2023/01/07 02:38:31;;;;;;;6.40;4.30;;;;;;;9.14;100.00;101518.31;5033778;28;20088;-38
2023/01/07 02:41:05;;;;;;;4.57;4.07;;;;;;;8.99;100.00;101500.44;5034032;28;20465;-38
2023/01/07 02:43:56;;;;;;;5.30;4.10;;;;;;;9.11;100.00;101516.03;5033473;28;20492;-38
2023/01/07 02:46:50;;;;;;;6.43;4.20;;;;;;;9.11;100.00;101511.47;5033565;28;20069;-38
2023/01/07 02:49:17;;;;;;;6.47;4.35;;;;;;;9.12;100.00;101517.69;5031764;28;20049;-38
2023/01/07 02:51:43;;;;;;;7.90;4.53;;;;;;;9.05;100.00;101503.38;5033369;28;20037;-38
2023/01/07 02:54:19;;;;;;;6.18;4.30;;;;;;;9.07;100.00;101502.09;5033463;28;20217;-38
2023/01/07 02:57:00;;;;;;;7.32;4.10;;;;;;;9.12;100.00;101509.59;5033148;28;20449;-38
2023/01/07 03:00:05;;;;;;;12.07;4.07;;;;;;;9.13;100.00;101509.41;5085733;28;20332;-38
2023/01/07 03:02:46;;;;;;;5.10;3.97;;;;;;;9.12;100.00;101509.59;5095628;28;20043;-38
2023/01/07 03:05:36;;;;;;;5.00;4.15;;;;;;;9.14;100.00;101510.22;5095557;28;20161;-38
2023/01/07 03:08:23;;;;;;;6.47;4.15;;;;;;;9.06;100.00;101495.06;5095993;28;20024;-38
2023/01/07 03:11:02;;;;;;;5.07;3.88;;;;;;;9.12;100.00;101494.22;5094783;28;20485;-38
2023/01/07 03:13:57;;;;;;;4.05;3.50;;;;;;;8.96;100.00;101463.09;5095071;28;20031;-38
2023/01/07 03:16:28;;;;;;;4.18;3.55;;;;;;;9.07;100.00;101477.00;5094993;28;20089;-38
2023/01/07 03:19:05;;;;;;;4.13;3.25;;;;;;;9.09;100.00;101472.25;5094703;28;20032;-38
2023/01/07 03:21:33;;;;;;;5.38;3.60;;;;;;;9.14;100.00;101480.56;5095217;28;20066;-38
2023/01/07 03:24:00;;;;;;;4.60;3.47;;;;;;;9.15;100.00;101476.81;5094839;28;20076;-38
2023/01/07 03:26:30;;;;;;;4.07;3.53;;;;;;;9.17;100.00;101478.25;5095108;28;20064;-38
2023/01/07 03:28:59;;;;;;;6.53;3.50;;;;;;;9.19;100.00;101473.50;5094456;28;20534;-38
2023/01/07 03:31:26;;;;;;;4.78;3.17;;;;;;;9.20;100.00;101468.94;5094548;28;20024;-38
2023/01/07 03:33:58;;;;;;;5.72;3.50;;;;;;;9.20;100.00;101466.22;5094639;28;20028;-38
2023/01/07 03:36:31;;;;;;;4.88;3.15;;;;;;;9.21;100.00;101466.00;5094291;28;20078;-38
2023/01/07 03:38:58;;;;;;;4.47;2.85;;;;;;;9.22;100.00;101456.91;5094498;28;20051;-38
2023/01/07 03:44:08;;;;;;;5.00;2.95;;;;;;;9.11;100.00;101427.81;5094108;28;20039;-38
2023/01/07 03:46:34;;;;;;;3.73;2.87;;;;;;;9.27;100.00;101448.16;5094308;28;20388;-38
2023/01/07 03:48:59;;;;;;;5.88;3.10;;;;;;;9.27;100.00;101453.56;5094849;28;20028;-38
2023/01/07 03:51:24;;;;;;;4.23;2.90;;;;;;;9.25;100.00;101447.53;5094223;28;20024;-38
2023/01/07 03:53:50;;;;;;;3.63;2.93;;;;;;;9.29;100.00;101446.09;5094681;28;20020;-38
2023/01/07 03:56:15;;;;;;;5.93;3.00;;;;;;;9.30;100.00;101436.97;5094062;28;20034;-38
2023/01/07 03:58:41;;;;;;;3.20;2.43;;;;;;;9.31;100.00;101446.72;5094531;28;20103;-38
2023/01/07 04:01:06;;;;;;;4.93;2.80;;;;;;;9.32;100.00;101434.91;5093928;28;20468;-38
2023/01/07 04:03:32;;;;;;;3.53;2.57;;;;;;;9.34;100.00;101443.59;5094177;28;20020;-38
2023/01/07 04:05:57;;;;;;;4.50;2.60;;;;;;;9.36;100.00;101438.00;5094062;28;20038;-38
2023/01/07 04:08:22;;;;;;;3.67;2.43;;;;;;;9.33;100.00;101431.16;5094628;28;20113;-38
2023/01/07 04:10:48;;;;;;;3.67;2.33;;;;;;;9.38;100.00;101428.66;5093770;28;20038;-38
2023/01/07 04:13:13;;;;;;;4.23;3.23;;;;;;;9.39;100.00;101424.91;5094236;28;20020;-38
2023/01/07 04:15:38;;;;;;;5.90;2.70;;;;;;;9.40;100.00;101418.47;5093615;28;20027;-37
2023/01/07 04:18:04;;;;;;;3.20;2.70;;;;;;;9.42;100.00;101421.81;5094509;28;20036;-37
2023/01/07 04:20:29;;;;;;;4.50;2.43;;;;;;;9.36;100.00;101401.03;5093886;28;20452;-38
2023/01/07 04:22:54;;;;;;;3.67;2.10;;;;;;;9.44;100.00;101419.72;5094119;28;20088;-38
2023/01/07 04:25:20;;;;;;;3.87;2.20;;;;;;;9.41;100.00;101409.31;5093801;28;20055;-46
2023/01/07 04:27:45;;;;;;;2.83;2.07;;;;;;;9.43;100.00;101415.38;5094017;28;20457;-38
2023/01/07 04:30:10;;;;;;;4.13;2.23;;;;;;;9.30;100.00;101380.28;5093760;28;20035;-38
2023/01/07 04:32:36;;;;;;;5.20;2.40;;;;;;;9.42;100.00;101397.50;5093633;28;20024;-37
2023/01/07 04:35:01;;;;;;;4.60;2.10;;;;;;;9.44;100.00;101400.00;5094036;28;20036;-38
2023/01/07 04:37:26;;;;;;;3.37;2.10;;;;;;;9.37;100.00;101383.81;5093506;28;20048;-38
2023/01/07 04:39:52;;;;;;;3.13;2.30;;;;;;;9.45;100.00;101385.44;5093922;28;20059;-37
2023/01/07 04:42:17;;;;;;;3.77;2.07;;;;;;;9.46;100.00;101387.09;5093333;28;20028;-37
2023/01/07 04:44:42;;;;;;;6.60;2.07;;;;;;;9.44;100.00;101384.63;5093387;28;20028;-38
2023/01/07 04:47:08;;;;;;;3.57;2.40;;;;;;;9.42;100.00;101378.63;5097408;28;20028;-38
2023/01/07 04:49:33;;;;;;;4.30;2.40;;;;;;;9.44;100.00;101378.41;5098395;28;20051;-37
2023/01/07 04:51:58;;;;;;;3.97;2.43;;;;;;;9.45;100.00;101385.44;5097788;28;20442;-38
2023/01/07 04:54:24;;;;;;;4.37;2.47;;;;;;;9.39;100.00;101372.81;5097718;28;20020;-37
2023/01/07 04:56:49;;;;;;;5.67;2.07;;;;;;;9.43;100.00;101388.38;5097475;28;20028;-38
2023/01/07 04:59:14;;;;;;;3.90;2.10;;;;;;;9.44;100.00;101383.78;5097661;28;20376;-38
2023/01/07 05:01:40;;;;;;;2.77;2.17;;;;;;;9.44;100.00;101376.53;5097263;28;20046;-38
2023/01/07 05:04:05;;;;;;;4.33;1.70;;;;;;;9.43;100.00;101376.75;5097682;28;20376;-37
2023/01/07 05:06:30;;;;;;;4.93;2.00;;;;;;;9.44;100.00;101367.59;5097789;28;20028;-37
2023/01/07 05:08:56;;;;;;;4.83;2.00;;;;;;;9.44;100.00;101370.31;5097533;28;20376;-38
2023/01/07 05:11:21;;;;;;;4.18;1.90;;;;;;;9.40;100.00;101361.78;5097370;28;20118;-37
2023/01/07 05:13:48;;;;;;;4.10;2.13;;;;;;;9.45;100.00;101366.56;5098231;28;20027;-37
2023/01/07 05:16:14;;;;;;;2.30;1.70;;;;;;;9.44;100.00;101368.44;5097265;28;20263;-38
2023/01/07 05:18:39;;;;;;;2.20;1.67;;;;;;;9.47;100.00;101364.50;5097964;28;20039;-37
2023/01/07 05:21:04;;;;;;;4.83;1.77;;;;;;;9.46;100.00;101365.50;5097216;28;20020;-37
2023/01/07 05:23:30;;;;;;;6.07;2.13;;;;;;;9.42;100.00;101348.06;5097786;28;20027;-38
2023/01/07 05:25:55;;;;;;;4.10;1.87;;;;;;;9.44;100.00;101356.81;5097213;28;20409;-38
2023/01/07 05:28:20;;;;;;;5.07;1.90;;;;;;;9.45;100.00;101353.88;5097467;28;20412;-38
2023/01/07 05:30:46;;;;;;;3.33;2.10;;;;;;;9.39;100.00;101343.13;5097819;28;20028;-37
2023/01/07 05:33:12;;;;;;;2.42;1.55;;;;;;;9.43;100.00;101350.56;5097752;28;20031;-38
2023/01/07 05:35:37;;;;;;;3.90;1.77;;;;;;;9.37;100.00;101337.94;5096887;28;20111;-38
2023/01/07 05:38:02;;;;;;;3.80;1.50;;;;;;;9.45;100.00;101351.19;5097683;28;20357;-38
2023/01/07 05:40:28;;;;;;;3.20;1.87;;;;;;;9.45;100.00;101353.88;5097432;28;20123;-38
2023/01/07 05:42:53;;;;;;;4.87;1.73;;;;;;;9.41;100.00;101349.94;5096863;28;20039;-37
2023/01/07 05:45:20;;;;;;;3.23;1.77;;;;;;;9.43;100.00;101352.44;5096780;28;20035;-38
2023/01/07 05:47:46;;;;;;;3.33;1.50;;;;;;;9.37;100.00;101342.47;5096745;28;20460;-38
2023/01/07 05:50:11;;;;;;;3.22;1.55;;;;;;;9.37;100.00;101329.84;5096432;28;20028;-38
2023/01/07 05:52:36;;;;;;;6.53;1.57;;;;;;;9.44;100.00;101344.13;5096310;28;20111;-38
2023/01/07 05:55:02;;;;;;;2.87;1.40;;;;;;;9.45;100.00;101342.25;5096888;28;20098;-38
2023/01/07 05:57:27;;;;;;;4.20;1.60;;;;;;;9.43;100.00;101336.25;5095567;28;20063;-38
2023/01/07 05:59:53;;;;;;;3.60;1.70;;;;;;;9.40;100.00;101334.78;5097396;28;20035;-38
2023/01/07 06:02:18;;;;;;;3.37;1.60;;;;;;;9.43;100.00;101333.56;5096220;28;20031;-37
2023/01/07 06:04:44;;;;;;;2.87;1.53;;;;;;;9.42;100.00;101334.56;5096462;28;20119;-37
2023/01/07 06:07:09;;;;;;;2.23;1.50;;;;;;;9.41;100.00;101328.34;5096599;28;20036;-37
2023/01/07 06:09:34;;;;;;;2.97;1.60;;;;;;;9.41;100.00;101324.81;5095468;28;20611;-37
2023/01/07 06:11:59;;;;;;;3.30;1.40;;;;;;;9.41;100.00;101314.84;5094302;28;20068;-38
2023/01/07 06:14:25;;;;;;;2.63;1.30;;;;;;;9.41;100.00;101317.53;5096236;28;20035;-37
2023/01/07 06:16:50;;;;;;;2.50;1.40;;;;;;;9.43;100.00;101317.34;5095902;28;20035;-37
2023/01/07 06:19:15;;;;;;;4.13;1.43;;;;;;;9.41;100.00;101311.31;5096211;28;20020;-37
2023/01/07 06:21:41;;;;;;;1.43;1.10;;;;;;;9.44;100.00;101308.22;5095760;28;20035;-37
2023/01/07 06:24:06;;;;;;;3.00;1.10;;;;;;;9.42;100.00;101308.44;5096057;28;20031;-37
2023/01/07 06:26:31;;;;;;;2.53;1.10;;;;;;;9.44;100.00;101303.63;5096015;28;20028;-37
2023/01/07 06:28:57;;;;;;;2.43;1.20;;;;;;;9.46;100.00;101309.66;5095761;28;20032;-37
2023/01/07 06:31:22;;;;;;;3.00;1.20;;;;;;;9.41;100.00;101292.44;5095829;28;20468;-37
2023/01/07 06:33:47;;;;;;;2.40;1.10;;;;;;;9.47;100.00;101303.22;5096187;28;20028;-37
2023/01/07 06:36:13;;;;;;;1.60;0.93;;;;;;;9.46;100.00;101289.91;5095775;28;20050;-37
2023/01/07 06:38:40;;;;;;;1.87;1.10;;;;;;;9.46;100.00;101289.91;5095866;28;20022;-37
2023/01/07 06:41:05;;;;;;;1.45;1.00;;;;;;;9.43;100.00;101285.78;5096463;28;20131;-37
2023/01/07 06:43:31;;;;;;;1.70;0.93;;;;;;;9.45;100.00;101288.28;5095725;28;20107;-37
2023/01/07 06:45:56;;;;;;;3.20;1.20;;;;;;;9.45;100.00;101283.69;5095651;28;20077;-37
2023/01/07 06:48:21;;;;;;;3.20;1.40;;;;;;;9.44;100.00;101284.75;5095637;28;20023;-37
2023/01/07 06:50:47;;;;;;;2.13;1.10;;;;;;;9.44;100.00;101268.56;5095804;28;20028;-37
2023/01/07 06:53:12;;;;;;;1.80;0.90;;;;;;;9.39;100.00;101268.34;5095437;28;20031;-37
2023/01/07 06:55:37;;;;;;;2.35;0.90;;;;;;;9.44;100.00;101273.94;5095921;28;20039;-37
2023/01/07 06:58:03;;;;;;;4.17;1.27;;;;;;;9.45;100.00;101278.28;5095528;28;20472;-37
2023/01/07 07:00:28;;;;;;;3.57;1.23;;;;;;;9.41;100.00;101262.75;5095346;28;20365;-37
2023/01/07 07:02:54;;;;;;;1.63;1.02;;;;;;;9.43;100.00;101279.56;5095057;28;20029;-37
2023/01/07 07:05:19;;;;;;;1.30;0.83;;;;;;;9.43;100.00;101275.00;5095279;28;20043;-37
2023/01/07 07:07:44;;;;;;;1.43;0.90;;;;;;;9.43;100.00;101268.78;5095804;28;20020;-37
2023/01/07 07:10:10;;;;;;;1.80;0.70;;;;;;;9.36;100.00;101249.06;5095777;28;20028;-37
2023/01/07 07:12:37;;;;;;;1.95;0.90;;;;;;;9.34;100.00;101246.56;5095551;28;20028;-37
2023/01/07 07:15:02;;;;;;;;;;;;;;;9.43;100.00;101258.78;5095728;28;20113;-37
2023/01/07 07:17:28;;;;;;;2.03;1.02;;;;;;;9.43;100.00;101249.88;5095022;28;19912;-37
2023/01/07 07:19:53;;;;;;;6.53;1.53;;;;;;;9.42;100.00;101251.75;5095561;28;20028;-37
2023/01/07 07:22:18;;;;;;;1.57;0.97;;;;;;;9.42;100.00;101251.75;5094645;28;20036;-37
2023/01/07 07:24:43;;;;;;;1.57;0.87;;;;;;;9.33;100.00;101242.22;5094937;28;20057;-37
2023/01/07 07:27:09;;;;;;;1.07;0.80;;;;;;;9.39;100.00;101257.56;5095158;28;20063;-37
2023/01/07 07:29:34;;;;;;;3.33;1.30;;;;;;;9.36;100.00;101246.34;5095314;28;20024;-37
2023/01/07 07:31:59;;;;;;;2.17;0.90;;;;;;;9.39;100.00;101254.03;5094348;28;20051;-37
2023/01/07 07:34:25;;;;;;;1.57;0.97;;;;;;;9.38;100.00;101250.50;5094461;28;20016;-37
2023/01/07 07:36:50;;;;;;;1.70;0.70;;;;;;;9.37;100.00;101248.88;5095117;28;20093;-37
2023/01/07 07:39:15;;;;;;;0.97;0.70;;;;;;;9.34;100.00;101241.19;5094592;28;20028;-37
2023/01/07 07:41:41;;;;;;;1.20;0.63;;;;;;;9.30;100.00;101234.53;5094151;28;20035;-37
2023/01/07 07:44:06;;;;;;;2.72;0.73;;;;;;;9.36;100.00;101247.19;5095341;28;20025;-37
2023/01/07 07:46:32;;;;;;;1.23;0.80;;;;;;;9.33;100.00;101242.22;5094225;28;20472;-37
2023/01/07 07:48:57;;;;;;;2.63;1.07;;;;;;;9.32;100.00;101235.19;5094382;28;20487;-37
2023/01/07 07:51:22;;;;;;;1.47;0.90;;;;;;;9.33;100.00;101238.69;5094454;28;20024;-37
2023/01/07 07:53:48;;;;;;;1.23;0.90;;;;;;;9.34;100.00;101234.94;5094146;28;20107;-37
2023/01/07 07:56:13;;;;;;;1.63;0.83;;;;;;;9.24;100.00;101206.53;5094771;28;20073;-37
2023/01/07 07:58:38;;;;;;;1.13;0.70;;;;;;;9.36;100.00;101230.97;5094305;28;20020;-37
2023/01/07 08:01:04;;;;;;;1.17;0.90;;;;;;;9.29;100.00;101219.41;5093993;28;20384;-37
2023/01/07 08:03:29;;;;;;;1.27;0.90;;;;;;;9.34;100.00;101219.59;5094429;28;20062;-37
2023/01/07 08:05:54;;;;;;;1.40;0.70;;;;;;;9.35;100.00;101220.41;5094498;28;20035;-37
2023/01/07 08:08:20;;;;;;;1.40;0.90;;;;;;;9.38;100.00;101218.13;5094970;28;20027;-37
2023/01/07 08:10:45;;;;;;;1.23;0.90;;;;;;;9.36;100.00;101212.09;5093788;28;20496;-37
2023/01/07 08:13:11;;;;;;;1.63;0.90;;;;;;;9.38;100.00;101209.19;5094037;28;20123;-38
2023/01/07 08:15:36;;;;;;;2.85;1.00;;;;;;;9.34;100.00;101207.97;5094208;28;20095;-38
2023/01/07 08:18:05;;;;;;;1.48;0.90;;;;;;;9.39;100.00;101218.94;5094784;28;20112;-38
2023/01/07 08:20:31;;;;;;;1.80;1.00;;;;;;;9.40;100.00;101221.44;5093956;28;20032;-38
2023/01/07 08:22:59;;;;;;;1.42;0.80;;;;;;;9.38;100.00;101210.03;5093653;28;20039;-38
2023/01/07 08:25:24;;;;;;;2.08;0.90;;;;;;;9.28;100.00;101196.16;5093812;28;20043;-38
2023/01/07 08:27:50;;;;;;;1.83;0.77;;;;;;;9.42;100.00;101210.41;5093956;28;20036;-38
2023/01/07 08:30:16;;;;;;;1.07;0.80;;;;;;;9.41;100.00;101204.19;5093573;28;20060;-38
2023/01/07 08:32:41;;;;;;;2.15;0.98;;;;;;;9.44;100.00;101206.47;5093674;28;20434;-38
2023/01/07 08:35:07;;;;;;;2.05;1.05;;;;;;;9.38;100.00;101196.53;5094350;28;20050;-38
2023/01/07 08:37:33;;;;;;;2.15;0.90;;;;;;;9.46;100.00;101201.66;5094208;28;20044;-38
2023/01/07 08:39:58;;;;;;;3.13;1.30;;;;;;;9.48;100.00;101198.78;5094071;28;20077;-38
2023/01/07 08:42:24;;;;;;;1.90;0.88;;;;;;;9.44;100.00;101184.88;5093633;28;20430;-38
2023/01/07 08:44:49;;;;;;;1.77;0.93;;;;;;;9.51;100.00;101196.44;5094256;28;20043;-38
2023/01/07 08:47:15;;;;;;;1.70;0.70;;;;;;;9.52;100.00;101192.72;5092511;28;20383;-38
2023/01/07 08:49:40;;;;;;;1.37;0.70;;;;;;;9.53;100.00;101193.56;5093703;28;20024;-38
2023/01/07 08:52:05;;;;;;;0.93;0.70;;;;;;;9.55;100.00;101200.38;5093214;28;20484;-38
2023/01/07 08:54:31;;;;;;;2.27;0.93;;;;;;;9.57;100.00;101196.66;5094095;28;20043;-38
2023/01/07 08:56:56;;;;;;;1.27;0.80;;;;;;;9.52;100.00;101187.31;5093558;28;20020;-38
2023/01/07 08:59:21;;;;;;;2.50;1.00;;;;;;;9.54;100.00;101193.31;5093486;28;20031;-38
2023/01/07 09:01:47;;;;;;;1.30;0.63;;;;;;;9.57;100.00;101188.56;5093270;28;20032;-37
2023/01/07 09:04:12;;;;;;;1.40;0.80;;;;;;;9.57;100.00;101189.38;5093565;28;20265;-38
2023/01/07 09:06:37;;;;;;;1.40;0.70;;;;;;;9.60;100.00;101188.09;5093970;28;20039;-38
2023/01/07 09:09:03;;;;;;;1.30;0.70;;;;;;;9.62;100.00;101186.88;5093985;28;20046;-38
2023/01/07 09:11:28;;;;;;;1.55;0.70;;;;;;;9.60;100.00;101172.72;5093320;28;20058;-38
2023/01/07 09:13:53;;;;;;;1.43;0.63;;;;;;;9.47;100.00;101143.97;5093390;28;20032;-38
2023/01/07 09:16:19;;;;;;;1.00;0.70;;;;;;;9.67;100.00;101170.84;5093630;28;20038;-38
2023/01/07 09:18:44;;;;;;;1.73;0.70;;;;;;;9.67;100.00;101170.00;5093955;28;20107;-38
2023/01/07 09:21:09;;;;;;;1.63;0.70;;;;;;;9.68;100.00;101161.69;5093271;28;20024;-38
2023/01/07 09:23:35;;;;;;;2.33;0.80;;;;;;;9.71;100.00;101169.38;5094171;28;20032;-38
2023/01/07 09:26:00;;;;;;;2.23;0.80;;;;;;;9.71;100.00;101163.97;5093191;28;20036;-38
2023/01/07 09:28:25;;;;;;;1.83;0.90;;;;;;;9.74;100.00;101165.38;5093315;28;20020;-38
2023/01/07 09:30:51;;;;;;;1.13;0.80;;;;;;;9.73;100.00;101161.84;5093498;28;20024;-38
2023/01/07 09:33:16;;;;;;;1.35;0.80;;;;;;;9.76;100.00;101155.19;5094461;28;20468;-38
2023/01/07 09:35:42;;;;;;;1.50;0.90;;;;;;;9.79;100.00;101149.34;5097014;28;20142;-38
2023/01/07 09:38:07;;;;;;;2.80;0.80;;;;;;;9.80;100.00;101153.69;5096456;28;20086;-38
2023/01/07 09:40:38;;;;;;;0.80;0.60;;;;;;;9.82;100.00;101148.94;5096861;28;20478;-38
2023/01/07 09:43:09;;;;;;;2.65;0.82;;;;;;;9.83;100.00;101139.78;5097668;28;20040;-38
2023/01/07 09:45:51;;;;;;;5.35;0.95;;;;;;;9.86;100.00;101136.66;5097413;28;20028;-38
2023/01/07 09:48:28;;;;;;;2.22;0.90;;;;;;;9.89;100.00;101129.97;5097076;28;20020;-38
2023/01/07 09:51:23;;;;;;;1.63;0.90;;;;;;;9.93;100.00;101125.78;5097560;28;20384;-38
2023/01/07 09:53:56;;;;;;;1.25;0.85;;;;;;;9.90;100.00;101115.41;5096732;28;20145;-38
2023/01/07 09:56:47;;;;;;;1.35;0.90;;;;;;;9.99;100.00;101119.50;5096588;28;20103;-38
2023/01/07 09:59:14;;;;;;;3.47;0.80;;;;;;;10.00;100.00;101119.28;5093545;28;20044;-38
2023/01/07 10:02:06;;;;;;;2.15;0.85;;;;;;;10.01;100.00;101104.72;5096489;28;20039;-38
2023/01/07 10:04:54;;;;;;;2.20;0.95;;;;;;;10.15;100.00;101101.88;5096370;28;20032;-37
2023/01/07 10:07:36;;;;;;;2.45;0.90;;;;;;;10.23;99.82;101107.84;5097450;28;20338;-39
2023/01/07 10:10:28;;;;;;;1.60;0.90;;;;;;;10.31;99.32;101098.66;5096928;28;20020;-38
2023/01/07 10:13:02;;;;;;;1.80;1.00;;;;;;;10.38;98.31;101096.72;5093082;28;20043;-38
2023/01/07 10:15:41;;;;;;;2.40;0.82;;;;;;;10.43;97.76;101080.66;5096594;28;20028;-39
2023/01/07 10:18:35;;;;;;;1.45;0.80;;;;;;;10.47;97.45;101081.84;5096783;28;20365;-38
2023/01/07 10:21:21;;;;;;;0.75;0.60;;;;;;;10.55;97.41;101069.94;5096233;28;20089;-38
2023/01/07 10:24:10;;;;;;;1.40;0.65;;;;;;;10.55;96.81;101059.94;5096139;28;20020;-38
2023/01/07 10:26:42;;;;;;;1.77;1.02;;;;;;;10.57;96.47;101051.59;5095608;28;20078;-39
2023/01/07 10:29:49;;;;;;;2.50;0.70;;;;;;;10.58;95.10;101048.66;5096912;28;20024;-38
2023/01/07 10:32:20;;;;;;;1.27;0.50;;;;;;;10.63;94.96;101045.25;5087763;28;20168;-38
2023/01/07 10:34:52;;;;;;;3.90;1.08;;;;;;;10.63;94.48;101028.22;5096270;28;20020;-39
2023/01/07 10:37:18;;;;;;;3.63;0.90;;;;;;;10.68;95.30;101031.06;5096276;28;20493;-38
2023/01/07 10:40:10;;;;;;;1.30;0.70;;;;;;;10.69;93.58;101022.75;5095898;28;20060;-38
2023/01/07 10:42:47;;;;;;;1.55;0.60;;;;;;;10.70;92.50;101015.44;5096340;28;20040;-38
2023/01/07 10:45:29;;;;;;;3.17;0.75;;;;;;;10.70;92.32;101021.69;5095966;28;20049;-38
2023/01/07 10:48:14;;;;;;;1.52;0.80;;;;;;;10.73;93.71;101012.28;5095965;28;20081;-38
2023/01/07 10:51:06;;;;;;;2.88;0.70;;;;;;;10.70;91.64;101002.75;5095961;28;20148;-39
2023/01/07 10:53:48;;;;;;;1.13;0.70;;;;;;;10.79;92.15;101000.56;5033348;28;20045;-38
2023/01/07 10:56:35;;;;;;;1.95;0.70;;;;;;;10.77;91.44;101000.78;5033471;28;20486;-39
2023/01/07 10:59:01;;;;;;;1.15;0.50;;;;;;;10.78;90.15;100998.88;5033727;28;20359;-39
2023/01/07 11:01:32;;;;;;;1.52;0.70;;;;;;;10.81;89.76;100993.84;5032912;28;20030;-47
2023/01/07 11:03:58;;;;;;;1.30;0.63;;;;;;;10.88;90.48;100980.22;5033043;28;20474;-38
2023/01/07 11:06:51;;;;;;;1.15;0.70;;;;;;;10.92;89.21;100970.59;5032802;28;20030;-39
2023/01/07 11:09:22;;;;;;;1.13;0.60;;;;;;;10.94;88.90;100979.34;5032764;28;20029;-39
2023/01/07 11:11:49;;;;;;;1.75;0.60;;;;;;;10.94;89.17;100979.34;5032878;28;20371;-39
2023/01/07 11:14:23;;;;;;;1.20;0.45;;;;;;;10.92;87.60;100970.59;5033174;28;20029;-37
2023/01/07 11:17:11;;;;;;;1.67;0.80;;;;;;;10.93;89.05;100966.00;5032806;28;20516;-37
2023/01/07 11:19:48;;;;;;;1.27;0.60;;;;;;;10.87;87.34;100966.94;5032870;28;20451;-37
2023/01/07 11:22:35;;;;;;;1.08;0.60;;;;;;;10.85;87.66;100964.47;5032437;28;20025;-37
2023/01/07 11:25:24;;;;;;;0.80;0.60;;;;;;;10.81;87.56;100955.97;5032965;28;20048;-37
2023/01/07 11:27:49;;;;;;;1.58;0.95;;;;;;;10.88;89.59;100952.34;5032446;28;20033;-37
2023/01/07 11:30:27;;;;;;;3.10;0.80;;;;;;;10.88;88.78;100939.66;5054769;28;20473;-37
2023/01/07 11:33:02;;;;;;;1.10;0.68;;;;;;;10.85;87.35;100920.38;5094481;28;20035;-37
2023/01/07 11:35:28;;;;;;;3.47;0.98;;;;;;;10.82;87.27;100927.06;5094687;28;20035;-38
2023/01/07 11:37:54;;;;;;;1.30;0.80;;;;;;;10.83;87.30;100926.84;5094457;28;20476;-37
2023/01/07 11:40:23;;;;;;;0.85;0.60;;;;;;;10.80;88.72;100919.19;5095128;28;20380;-37
2023/01/07 11:43:00;;;;;;;0.93;0.65;;;;;;;10.88;86.90;100920.72;5094833;28;20064;-38